Cusick, Washington
Current Conditions -  °F | °C
As of 4:53 PM on Friday 24 Oct 2014 (Local Time) from KDEW Reporting Station
Few Clouds Few Clouds  
Wind Chill: 52°   Ceiling: Unl
Heat Index: 52°   Visibility: 10mi
Dew Point: 42°   Wind: 7mph
Humidity: 69%   Direction: 30°NNE
Pressure: 30.06"   Gusts: NA
Location:  48.34°N, 117.3°W
Report Text: KDEW 242353Z AUTO 03006KT 10SM FEW033 11/06 A3006 RMK AO2 SLP183 T01110056 10122 20089 58007
Loading
Personal Weather Stations






























Interactive Weather Map New forecast layout! Learn more

10-Day Weather Forecast

Advertisements
Track Severe Weather on mobile